sensor_id;sensor_type;location;lat;lon;timestamp;P1;durP1;ratioP1;P2;durP2;ratioP2
9898;SDS011;4988;49.238;6.698;2024-03-07T00:00:19;16.83;;;8.60;;
9898;SDS011;4988;49.238;6.698;2024-03-07T00:02:47;17.97;;;8.97;;
9898;SDS011;4988;49.238;6.698;2024-03-07T00:05:18;15.70;;;9.17;;
9898;SDS011;4988;49.238;6.698;2024-03-07T00:07:44;16.87;;;9.17;;
9898;SDS011;4988;49.238;6.698;2024-03-07T00:10:10;17.33;;;10.00;;
9898;SDS011;4988;49.238;6.698;2024-03-07T00:12:35;20.63;;;9.93;;
9898;SDS011;4988;49.238;6.698;2024-03-07T00:15:05;19.57;;;10.27;;
9898;SDS011;4988;49.238;6.698;2024-03-07T00:17:36;19.57;;;9.40;;
9898;SDS011;4988;49.238;6.698;2024-03-07T00:20:02;16.17;;;9.50;;
9898;SDS011;4988;49.238;6.698;2024-03-07T00:22:29;16.00;;;9.07;;
9898;SDS011;4988;49.238;6.698;2024-03-07T00:24:57;20.57;;;10.27;;
9898;SDS011;4988;49.238;6.698;2024-03-07T00:27:22;20.07;;;10.67;;
9898;SDS011;4988;49.238;6.698;2024-03-07T00:29:48;24.40;;;10.20;;
9898;SDS011;4988;49.238;6.698;2024-03-07T00:32:19;23.33;;;11.83;;
9898;SDS011;4988;49.238;6.698;2024-03-07T00:34:45;27.43;;;12.40;;
9898;SDS011;4988;49.238;6.698;2024-03-07T00:37:10;30.10;;;13.50;;
9898;SDS011;4988;49.238;6.698;2024-03-07T00:39:35;31.40;;;14.63;;
9898;SDS011;4988;49.238;6.698;2024-03-07T00:42:01;32.37;;;14.83;;
9898;SDS011;4988;49.238;6.698;2024-03-07T00:44:27;34.47;;;15.40;;
9898;SDS011;4988;49.238;6.698;2024-03-07T00:46:52;35.10;;;16.60;;
9898;SDS011;4988;49.238;6.698;2024-03-07T00:49:17;36.83;;;16.83;;
9898;SDS011;4988;49.238;6.698;2024-03-07T00:51:43;42.33;;;17.17;;
9898;SDS011;4988;49.238;6.698;2024-03-07T00:54:09;40.60;;;18.33;;
9898;SDS011;4988;49.238;6.698;2024-03-07T00:56:37;41.03;;;18.87;;
9898;SDS011;4988;49.238;6.698;2024-03-07T00:59:03;47.37;;;20.20;;
9898;SDS011;4988;49.238;6.698;2024-03-07T01:01:28;43.90;;;18.60;;
9898;SDS011;4988;49.238;6.698;2024-03-07T01:03:54;44.27;;;20.27;;
9898;SDS011;4988;49.238;6.698;2024-03-07T01:06:19;48.33;;;21.77;;
9898;SDS011;4988;49.238;6.698;2024-03-07T01:08:45;45.67;;;19.67;;
9898;SDS011;4988;49.238;6.698;2024-03-07T01:11:10;44.53;;;20.07;;
9898;SDS011;4988;49.238;6.698;2024-03-07T01:13:40;47.60;;;20.37;;
9898;SDS011;4988;49.238;6.698;2024-03-07T01:16:06;48.60;;;22.20;;
9898;SDS011;4988;49.238;6.698;2024-03-07T01:18:31;53.97;;;21.33;;
9898;SDS011;4988;49.238;6.698;2024-03-07T01:21:00;46.77;;;19.30;;
9898;SDS011;4988;49.238;6.698;2024-03-07T01:23:26;51.70;;;22.57;;
9898;SDS011;4988;49.238;6.698;2024-03-07T01:25:53;51.20;;;21.70;;
9898;SDS011;4988;49.238;6.698;2024-03-07T01:28:20;48.73;;;21.83;;
9898;SDS011;4988;49.238;6.698;2024-03-07T01:30:47;47.10;;;21.07;;
9898;SDS011;4988;49.238;6.698;2024-03-07T01:33:12;49.73;;;22.43;;
9898;SDS011;4988;49.238;6.698;2024-03-07T01:35:38;50.10;;;22.00;;
9898;SDS011;4988;49.238;6.698;2024-03-07T01:38:03;52.33;;;23.07;;
9898;SDS011;4988;49.238;6.698;2024-03-07T01:40:28;52.07;;;22.43;;
9898;SDS011;4988;49.238;6.698;2024-03-07T01:42:54;54.77;;;23.80;;
9898;SDS011;4988;49.238;6.698;2024-03-07T01:45:20;53.97;;;22.73;;
9898;SDS011;4988;49.238;6.698;2024-03-07T01:47:45;51.77;;;22.17;;
9898;SDS011;4988;49.238;6.698;2024-03-07T01:50:10;55.93;;;23.80;;
9898;SDS011;4988;49.238;6.698;2024-03-07T01:52:38;54.27;;;23.27;;
9898;SDS011;4988;49.238;6.698;2024-03-07T01:55:06;59.60;;;24.80;;
9898;SDS011;4988;49.238;6.698;2024-03-07T01:57:32;54.43;;;22.87;;
9898;SDS011;4988;49.238;6.698;2024-03-07T01:59:57;61.20;;;23.50;;
9898;SDS011;4988;49.238;6.698;2024-03-07T02:02:24;55.33;;;23.50;;
9898;SDS011;4988;49.238;6.698;2024-03-07T02:04:49;54.70;;;24.33;;
9898;SDS011;4988;49.238;6.698;2024-03-07T02:07:15;59.80;;;24.20;;
9898;SDS011;4988;49.238;6.698;2024-03-07T02:09:40;58.90;;;24.60;;
9898;SDS011;4988;49.238;6.698;2024-03-07T02:12:06;56.07;;;24.20;;
9898;SDS011;4988;49.238;6.698;2024-03-07T02:14:33;57.23;;;24.23;;
9898;SDS011;4988;49.238;6.698;2024-03-07T02:16:59;58.77;;;25.07;;
9898;SDS011;4988;49.238;6.698;2024-03-07T02:19:24;56.87;;;25.03;;
9898;SDS011;4988;49.238;6.698;2024-03-07T02:21:50;58.47;;;24.80;;
9898;SDS011;4988;49.238;6.698;2024-03-07T02:24:15;57.50;;;24.67;;
9898;SDS011;4988;49.238;6.698;2024-03-07T02:26:41;62.80;;;26.13;;
9898;SDS011;4988;49.238;6.698;2024-03-07T02:29:06;57.03;;;25.10;;
9898;SDS011;4988;49.238;6.698;2024-03-07T02:31:32;60.47;;;25.67;;
9898;SDS011;4988;49.238;6.698;2024-03-07T02:34:01;57.03;;;25.23;;
9898;SDS011;4988;49.238;6.698;2024-03-07T02:36:28;63.70;;;26.37;;
9898;SDS011;4988;49.238;6.698;2024-03-07T02:38:53;59.17;;;25.43;;
9898;SDS011;4988;49.238;6.698;2024-03-07T02:41:19;59.87;;;25.27;;
9898;SDS011;4988;49.238;6.698;2024-03-07T02:43:44;62.30;;;25.83;;
9898;SDS011;4988;49.238;6.698;2024-03-07T02:46:10;61.00;;;26.23;;
9898;SDS011;4988;49.238;6.698;2024-03-07T02:48:37;57.77;;;26.13;;
9898;SDS011;4988;49.238;6.698;2024-03-07T02:51:02;59.90;;;27.80;;
9898;SDS011;4988;49.238;6.698;2024-03-07T02:53:30;59.70;;;26.27;;
9898;SDS011;4988;49.238;6.698;2024-03-07T02:55:56;62.53;;;25.87;;
9898;SDS011;4988;49.238;6.698;2024-03-07T02:58:21;62.97;;;26.53;;
9898;SDS011;4988;49.238;6.698;2024-03-07T03:00:46;65.33;;;26.73;;
9898;SDS011;4988;49.238;6.698;2024-03-07T03:03:14;57.57;;;26.00;;
9898;SDS011;4988;49.238;6.698;2024-03-07T03:05:39;58.73;;;26.37;;
9898;SDS011;4988;49.238;6.698;2024-03-07T03:08:04;61.33;;;25.87;;
9898;SDS011;4988;49.238;6.698;2024-03-07T03:10:32;58.97;;;26.97;;
9898;SDS011;4988;49.238;6.698;2024-03-07T03:12:58;63.33;;;26.20;;
9898;SDS011;4988;49.238;6.698;2024-03-07T03:15:24;58.80;;;25.13;;
9898;SDS011;4988;49.238;6.698;2024-03-07T03:17:50;56.27;;;24.77;;
9898;SDS011;4988;49.238;6.698;2024-03-07T03:20:16;60.50;;;26.47;;
9898;SDS011;4988;49.238;6.698;2024-03-07T03:22:54;59.97;;;25.73;;
9898;SDS011;4988;49.238;6.698;2024-03-07T03:25:20;61.20;;;26.67;;
9898;SDS011;4988;49.238;6.698;2024-03-07T03:27:46;58.70;;;25.93;;
9898;SDS011;4988;49.238;6.698;2024-03-07T03:30:12;59.37;;;25.87;;
9898;SDS011;4988;49.238;6.698;2024-03-07T03:32:41;60.07;;;25.53;;
9898;SDS011;4988;49.238;6.698;2024-03-07T03:35:07;63.33;;;26.37;;
9898;SDS011;4988;49.238;6.698;2024-03-07T03:37:38;61.57;;;26.33;;
9898;SDS011;4988;49.238;6.698;2024-03-07T03:40:04;61.00;;;25.97;;
9898;SDS011;4988;49.238;6.698;2024-03-07T03:42:30;62.63;;;27.20;;
9898;SDS011;4988;49.238;6.698;2024-03-07T03:44:55;64.87;;;26.43;;
9898;SDS011;4988;49.238;6.698;2024-03-07T03:47:21;56.63;;;25.20;;
9898;SDS011;4988;49.238;6.698;2024-03-07T03:49:46;57.97;;;25.50;;
9898;SDS011;4988;49.238;6.698;2024-03-07T03:52:12;59.20;;;27.10;;
9898;SDS011;4988;49.238;6.698;2024-03-07T03:54:37;56.00;;;24.67;;
9898;SDS011;4988;49.238;6.698;2024-03-07T03:57:02;57.43;;;26.13;;
9898;SDS011;4988;49.238;6.698;2024-03-07T03:59:28;64.47;;;26.53;;
9898;SDS011;4988;49.238;6.698;2024-03-07T04:01:53;62.10;;;26.00;;
9898;SDS011;4988;49.238;6.698;2024-03-07T04:04:18;60.57;;;26.03;;
9898;SDS011;4988;49.238;6.698;2024-03-07T04:06:44;62.00;;;25.60;;
9898;SDS011;4988;49.238;6.698;2024-03-07T04:09:09;59.57;;;26.67;;
9898;SDS011;4988;49.238;6.698;2024-03-07T04:11:35;62.60;;;26.93;;
9898;SDS011;4988;49.238;6.698;2024-03-07T04:14:00;58.93;;;25.43;;
9898;SDS011;4988;49.238;6.698;2024-03-07T04:16:26;60.73;;;25.80;;
9898;SDS011;4988;49.238;6.698;2024-03-07T04:18:51;58.03;;;25.13;;
9898;SDS011;4988;49.238;6.698;2024-03-07T04:21:17;59.93;;;25.90;;
9898;SDS011;4988;49.238;6.698;2024-03-07T04:23:42;62.17;;;25.90;;
9898;SDS011;4988;49.238;6.698;2024-03-07T04:26:07;60.40;;;25.87;;
9898;SDS011;4988;49.238;6.698;2024-03-07T04:28:33;61.50;;;24.93;;
9898;SDS011;4988;49.238;6.698;2024-03-07T04:30:59;61.03;;;26.43;;
9898;SDS011;4988;49.238;6.698;2024-03-07T04:33:24;59.63;;;25.20;;
9898;SDS011;4988;49.238;6.698;2024-03-07T04:35:49;61.13;;;25.13;;
9898;SDS011;4988;49.238;6.698;2024-03-07T04:38:18;63.27;;;26.67;;
9898;SDS011;4988;49.238;6.698;2024-03-07T04:40:44;55.97;;;24.93;;
9898;SDS011;4988;49.238;6.698;2024-03-07T04:43:09;62.40;;;26.33;;
9898;SDS011;4988;49.238;6.698;2024-03-07T04:45:35;62.73;;;26.83;;
9898;SDS011;4988;49.238;6.698;2024-03-07T04:48:00;68.90;;;27.13;;
9898;SDS011;4988;49.238;6.698;2024-03-07T04:50:26;61.90;;;26.27;;
9898;SDS011;4988;49.238;6.698;2024-03-07T04:52:51;63.37;;;26.57;;
9898;SDS011;4988;49.238;6.698;2024-03-07T04:55:17;60.03;;;27.50;;
9898;SDS011;4988;49.238;6.698;2024-03-07T04:57:42;67.97;;;28.30;;
9898;SDS011;4988;49.238;6.698;2024-03-07T05:00:09;60.80;;;27.10;;
9898;SDS011;4988;49.238;6.698;2024-03-07T05:02:42;57.57;;;26.20;;
9898;SDS011;4988;49.238;6.698;2024-03-07T05:05:08;64.03;;;27.00;;
9898;SDS011;4988;49.238;6.698;2024-03-07T05:07:34;66.77;;;28.73;;
9898;SDS011;4988;49.238;6.698;2024-03-07T05:10:01;64.43;;;27.83;;
9898;SDS011;4988;49.238;6.698;2024-03-07T05:12:30;63.90;;;26.43;;
9898;SDS011;4988;49.238;6.698;2024-03-07T05:14:56;63.33;;;26.40;;
9898;SDS011;4988;49.238;6.698;2024-03-07T05:17:21;62.50;;;28.00;;
9898;SDS011;4988;49.238;6.698;2024-03-07T05:19:47;65.70;;;26.70;;
9898;SDS011;4988;49.238;6.698;2024-03-07T05:22:14;68.87;;;28.50;;
9898;SDS011;4988;49.238;6.698;2024-03-07T05:24:41;67.97;;;28.30;;
9898;SDS011;4988;49.238;6.698;2024-03-07T05:27:07;67.83;;;28.03;;
9898;SDS011;4988;49.238;6.698;2024-03-07T05:29:33;66.33;;;28.60;;
9898;SDS011;4988;49.238;6.698;2024-03-07T05:32:18;67.80;;;28.17;;
9898;SDS011;4988;49.238;6.698;2024-03-07T05:34:53;63.30;;;26.63;;
9898;SDS011;4988;49.238;6.698;2024-03-07T05:37:18;67.03;;;27.60;;
9898;SDS011;4988;49.238;6.698;2024-03-07T05:39:46;67.40;;;27.83;;
9898;SDS011;4988;49.238;6.698;2024-03-07T05:42:15;61.17;;;27.70;;
9898;SDS011;4988;49.238;6.698;2024-03-07T05:44:41;68.47;;;28.07;;
9898;SDS011;4988;49.238;6.698;2024-03-07T05:47:07;65.33;;;27.53;;
9898;SDS011;4988;49.238;6.698;2024-03-07T05:49:32;64.93;;;27.00;;
9898;SDS011;4988;49.238;6.698;2024-03-07T05:51:58;65.40;;;26.37;;
9898;SDS011;4988;49.238;6.698;2024-03-07T05:54:23;70.80;;;29.47;;
9898;SDS011;4988;49.238;6.698;2024-03-07T05:56:49;65.33;;;27.77;;
9898;SDS011;4988;49.238;6.698;2024-03-07T05:59:15;65.63;;;26.97;;
9898;SDS011;4988;49.238;6.698;2024-03-07T06:01:42;65.93;;;26.13;;
9898;SDS011;4988;49.238;6.698;2024-03-07T06:04:07;67.83;;;27.63;;
9898;SDS011;4988;49.238;6.698;2024-03-07T06:06:35;71.00;;;27.90;;
9898;SDS011;4988;49.238;6.698;2024-03-07T06:09:02;61.03;;;25.83;;
9898;SDS011;4988;49.238;6.698;2024-03-07T06:11:35;62.97;;;26.43;;
9898;SDS011;4988;49.238;6.698;2024-03-07T06:14:02;66.30;;;27.97;;
9898;SDS011;4988;49.238;6.698;2024-03-07T06:16:31;64.53;;;27.67;;
9898;SDS011;4988;49.238;6.698;2024-03-07T06:19:00;63.60;;;27.60;;
9898;SDS011;4988;49.238;6.698;2024-03-07T06:21:29;67.90;;;27.67;;
9898;SDS011;4988;49.238;6.698;2024-03-07T06:24:01;61.20;;;26.60;;
9898;SDS011;4988;49.238;6.698;2024-03-07T06:26:31;64.23;;;26.40;;
9898;SDS011;4988;49.238;6.698;2024-03-07T06:29:09;60.83;;;26.80;;
9898;SDS011;4988;49.238;6.698;2024-03-07T06:31:39;60.53;;;26.43;;
9898;SDS011;4988;49.238;6.698;2024-03-07T06:34:05;61.90;;;25.83;;
9898;SDS011;4988;49.238;6.698;2024-03-07T06:36:30;67.83;;;27.40;;
9898;SDS011;4988;49.238;6.698;2024-03-07T06:38:56;68.30;;;27.43;;
9898;SDS011;4988;49.238;6.698;2024-03-07T06:41:21;67.97;;;27.63;;
9898;SDS011;4988;49.238;6.698;2024-03-07T06:43:46;69.40;;;28.13;;
9898;SDS011;4988;49.238;6.698;2024-03-07T06:46:12;68.57;;;28.47;;
9898;SDS011;4988;49.238;6.698;2024-03-07T06:48:38;74.17;;;29.30;;
9898;SDS011;4988;49.238;6.698;2024-03-07T06:51:06;75.83;;;30.53;;
9898;SDS011;4988;49.238;6.698;2024-03-07T06:53:32;68.23;;;28.17;;
9898;SDS011;4988;49.238;6.698;2024-03-07T06:55:58;66.63;;;27.67;;
9898;SDS011;4988;49.238;6.698;2024-03-07T06:58:23;72.47;;;29.20;;
9898;SDS011;4988;49.238;6.698;2024-03-07T07:00:49;73.77;;;28.73;;
9898;SDS011;4988;49.238;6.698;2024-03-07T07:03:17;74.40;;;29.77;;
9898;SDS011;4988;49.238;6.698;2024-03-07T07:05:44;75.20;;;29.70;;
9898;SDS011;4988;49.238;6.698;2024-03-07T07:08:10;75.17;;;31.00;;
9898;SDS011;4988;49.238;6.698;2024-03-07T07:10:35;76.53;;;30.93;;
9898;SDS011;4988;49.238;6.698;2024-03-07T07:13:01;66.37;;;27.97;;
9898;SDS011;4988;49.238;6.698;2024-03-07T07:15:29;70.10;;;28.30;;
9898;SDS011;4988;49.238;6.698;2024-03-07T07:17:54;75.37;;;29.97;;
9898;SDS011;4988;49.238;6.698;2024-03-07T07:20:20;73.87;;;29.07;;
9898;SDS011;4988;49.238;6.698;2024-03-07T07:22:46;69.10;;;28.73;;
9898;SDS011;4988;49.238;6.698;2024-03-07T07:25:12;69.00;;;27.53;;
9898;SDS011;4988;49.238;6.698;2024-03-07T07:27:43;65.47;;;28.03;;
9898;SDS011;4988;49.238;6.698;2024-03-07T07:30:10;66.30;;;29.17;;
9898;SDS011;4988;49.238;6.698;2024-03-07T07:32:36;65.67;;;27.63;;
9898;SDS011;4988;49.238;6.698;2024-03-07T07:35:02;66.67;;;27.50;;
9898;SDS011;4988;49.238;6.698;2024-03-07T07:37:27;63.10;;;27.53;;
9898;SDS011;4988;49.238;6.698;2024-03-07T07:39:53;72.77;;;28.63;;
9898;SDS011;4988;49.238;6.698;2024-03-07T07:42:18;70.00;;;29.57;;
9898;SDS011;4988;49.238;6.698;2024-03-07T07:44:43;73.37;;;29.27;;
9898;SDS011;4988;49.238;6.698;2024-03-07T07:47:09;68.10;;;28.53;;
9898;SDS011;4988;49.238;6.698;2024-03-07T07:49:36;66.40;;;27.93;;
9898;SDS011;4988;49.238;6.698;2024-03-07T07:52:03;66.13;;;27.60;;
9898;SDS011;4988;49.238;6.698;2024-03-07T07:54:29;69.93;;;27.87;;
9898;SDS011;4988;49.238;6.698;2024-03-07T07:56:54;68.90;;;27.50;;
9898;SDS011;4988;49.238;6.698;2024-03-07T07:59:20;65.57;;;26.40;;
9898;SDS011;4988;49.238;6.698;2024-03-07T08:01:45;61.63;;;26.50;;
9898;SDS011;4988;49.238;6.698;2024-03-07T08:04:11;62.33;;;25.53;;
9898;SDS011;4988;49.238;6.698;2024-03-07T08:06:36;65.53;;;26.87;;
9898;SDS011;4988;49.238;6.698;2024-03-07T08:09:01;61.50;;;25.77;;
9898;SDS011;4988;49.238;6.698;2024-03-07T08:11:27;64.60;;;27.20;;
9898;SDS011;4988;49.238;6.698;2024-03-07T08:13:52;63.30;;;26.83;;
9898;SDS011;4988;49.238;6.698;2024-03-07T08:16:17;62.97;;;26.50;;
9898;SDS011;4988;49.238;6.698;2024-03-07T08:18:42;63.87;;;26.70;;
9898;SDS011;4988;49.238;6.698;2024-03-07T08:21:08;59.97;;;25.33;;
9898;SDS011;4988;49.238;6.698;2024-03-07T08:23:36;58.63;;;25.97;;
9898;SDS011;4988;49.238;6.698;2024-03-07T08:26:04;58.77;;;25.57;;
9898;SDS011;4988;49.238;6.698;2024-03-07T08:28:30;62.50;;;26.87;;
9898;SDS011;4988;49.238;6.698;2024-03-07T08:30:56;51.93;;;23.37;;
9898;SDS011;4988;49.238;6.698;2024-03-07T08:33:21;60.93;;;24.33;;
9898;SDS011;4988;49.238;6.698;2024-03-07T08:35:47;53.83;;;23.93;;
9898;SDS011;4988;49.238;6.698;2024-03-07T08:38:12;57.67;;;24.00;;
9898;SDS011;4988;49.238;6.698;2024-03-07T08:40:38;52.60;;;24.13;;
9898;SDS011;4988;49.238;6.698;2024-03-07T08:43:03;50.87;;;23.07;;
9898;SDS011;4988;49.238;6.698;2024-03-07T08:45:32;53.30;;;23.13;;
9898;SDS011;4988;49.238;6.698;2024-03-07T08:47:58;52.50;;;22.43;;
9898;SDS011;4988;49.238;6.698;2024-03-07T08:50:24;50.43;;;23.63;;
9898;SDS011;4988;49.238;6.698;2024-03-07T08:52:51;52.30;;;23.33;;
9898;SDS011;4988;49.238;6.698;2024-03-07T08:55:17;52.97;;;24.03;;
9898;SDS011;4988;49.238;6.698;2024-03-07T08:57:44;51.77;;;23.40;;
9898;SDS011;4988;49.238;6.698;2024-03-07T09:00:11;49.73;;;23.67;;
9898;SDS011;4988;49.238;6.698;2024-03-07T09:02:47;52.50;;;23.90;;
9898;SDS011;4988;49.238;6.698;2024-03-07T09:05:13;51.77;;;22.30;;
9898;SDS011;4988;49.238;6.698;2024-03-07T09:07:38;50.03;;;22.93;;
9898;SDS011;4988;49.238;6.698;2024-03-07T09:10:04;54.43;;;22.57;;
9898;SDS011;4988;49.238;6.698;2024-03-07T09:12:31;51.80;;;23.07;;
9898;SDS011;4988;49.238;6.698;2024-03-07T09:14:57;57.07;;;24.67;;
9898;SDS011;4988;49.238;6.698;2024-03-07T09:17:23;51.23;;;21.70;;
9898;SDS011;4988;49.238;6.698;2024-03-07T09:19:49;44.80;;;20.97;;
9898;SDS011;4988;49.238;6.698;2024-03-07T09:22:14;48.27;;;21.23;;
9898;SDS011;4988;49.238;6.698;2024-03-07T09:24:40;51.67;;;22.70;;
9898;SDS011;4988;49.238;6.698;2024-03-07T09:27:05;46.60;;;22.27;;
9898;SDS011;4988;49.238;6.698;2024-03-07T09:29:31;43.63;;;20.23;;
9898;SDS011;4988;49.238;6.698;2024-03-07T09:31:56;45.53;;;21.27;;
9898;SDS011;4988;49.238;6.698;2024-03-07T09:34:25;47.53;;;21.63;;
9898;SDS011;4988;49.238;6.698;2024-03-07T09:36:50;44.83;;;20.27;;
9898;SDS011;4988;49.238;6.698;2024-03-07T09:39:16;53.77;;;22.03;;
9898;SDS011;4988;49.238;6.698;2024-03-07T09:41:42;43.33;;;20.63;;
9898;SDS011;4988;49.238;6.698;2024-03-07T09:44:08;39.60;;;18.93;;
9898;SDS011;4988;49.238;6.698;2024-03-07T09:46:37;39.73;;;19.07;;
9898;SDS011;4988;49.238;6.698;2024-03-07T09:49:03;44.43;;;20.17;;
9898;SDS011;4988;49.238;6.698;2024-03-07T09:51:30;41.57;;;20.17;;
9898;SDS011;4988;49.238;6.698;2024-03-07T09:53:58;39.33;;;18.73;;
9898;SDS011;4988;49.238;6.698;2024-03-07T09:56:27;39.23;;;19.17;;
9898;SDS011;4988;49.238;6.698;2024-03-07T09:58:57;40.50;;;19.27;;
9898;SDS011;4988;49.238;6.698;2024-03-07T10:01:27;38.80;;;18.23;;
9898;SDS011;4988;49.238;6.698;2024-03-07T10:03:59;38.53;;;19.10;;
9898;SDS011;4988;49.238;6.698;2024-03-07T10:06:35;40.77;;;18.63;;
9898;SDS011;4988;49.238;6.698;2024-03-07T10:09:00;39.53;;;19.07;;
9898;SDS011;4988;49.238;6.698;2024-03-07T10:11:26;42.07;;;21.40;;
9898;SDS011;4988;49.238;6.698;2024-03-07T10:13:52;40.23;;;18.97;;
9898;SDS011;4988;49.238;6.698;2024-03-07T10:16:17;40.53;;;18.53;;
9898;SDS011;4988;49.238;6.698;2024-03-07T10:18:43;36.83;;;18.07;;
9898;SDS011;4988;49.238;6.698;2024-03-07T10:21:12;40.47;;;18.00;;
9898;SDS011;4988;49.238;6.698;2024-03-07T10:23:38;41.47;;;20.00;;
9898;SDS011;4988;49.238;6.698;2024-03-07T10:26:04;38.77;;;19.60;;
9898;SDS011;4988;49.238;6.698;2024-03-07T10:28:29;41.07;;;19.17;;
9898;SDS011;4988;49.238;6.698;2024-03-07T10:30:56;40.53;;;19.37;;
9898;SDS011;4988;49.238;6.698;2024-03-07T10:33:21;38.93;;;20.03;;
9898;SDS011;4988;49.238;6.698;2024-03-07T10:35:52;42.83;;;19.73;;
9898;SDS011;4988;49.238;6.698;2024-03-07T10:38:18;41.30;;;19.33;;
9898;SDS011;4988;49.238;6.698;2024-03-07T10:40:44;39.67;;;19.60;;
9898;SDS011;4988;49.238;6.698;2024-03-07T10:43:12;41.67;;;19.23;;
9898;SDS011;4988;49.238;6.698;2024-03-07T10:45:49;46.90;;;21.03;;
9898;SDS011;4988;49.238;6.698;2024-03-07T10:48:17;42.47;;;20.87;;
9898;SDS011;4988;49.238;6.698;2024-03-07T10:53:29;39.30;;;19.13;;
9898;SDS011;4988;49.238;6.698;2024-03-07T10:56:42;39.47;;;18.23;;
9898;SDS011;4988;49.238;6.698;2024-03-07T11:01:49;34.33;;;17.73;;
9898;SDS011;4988;49.238;6.698;2024-03-07T11:04:29;35.97;;;18.03;;
9898;SDS011;4988;49.238;6.698;2024-03-07T11:06:56;38.57;;;18.57;;
9898;SDS011;4988;49.238;6.698;2024-03-07T11:09:24;33.43;;;17.20;;
9898;SDS011;4988;49.238;6.698;2024-03-07T11:11:54;34.57;;;17.13;;
9898;SDS011;4988;49.238;6.698;2024-03-07T11:14:21;34.93;;;16.23;;
9898;SDS011;4988;49.238;6.698;2024-03-07T11:16:47;34.77;;;17.57;;
9898;SDS011;4988;49.238;6.698;2024-03-07T11:19:20;33.30;;;17.23;;
9898;SDS011;4988;49.238;6.698;2024-03-07T11:21:57;32.50;;;16.33;;
9898;SDS011;4988;49.238;6.698;2024-03-07T11:26:51;33.87;;;16.93;;
9898;SDS011;4988;49.238;6.698;2024-03-07T11:32:12;35.13;;;16.63;;
9898;SDS011;4988;49.238;6.698;2024-03-07T11:34:38;32.03;;;16.70;;
9898;SDS011;4988;49.238;6.698;2024-03-07T11:37:08;30.93;;;16.00;;
9898;SDS011;4988;49.238;6.698;2024-03-07T11:39:46;31.93;;;16.93;;
9898;SDS011;4988;49.238;6.698;2024-03-07T11:42:23;29.20;;;14.93;;
9898;SDS011;4988;49.238;6.698;2024-03-07T11:44:53;31.30;;;16.60;;
9898;SDS011;4988;49.238;6.698;2024-03-07T11:47:23;33.03;;;16.10;;
9898;SDS011;4988;49.238;6.698;2024-03-07T11:49:49;34.50;;;16.70;;
9898;SDS011;4988;49.238;6.698;2024-03-07T11:52:18;37.33;;;16.87;;
9898;SDS011;4988;49.238;6.698;2024-03-07T11:54:44;30.37;;;15.60;;
9898;SDS011;4988;49.238;6.698;2024-03-07T11:57:14;36.90;;;17.67;;
9898;SDS011;4988;49.238;6.698;2024-03-07T11:59:51;32.77;;;16.07;;
9898;SDS011;4988;49.238;6.698;2024-03-07T12:02:17;36.90;;;18.13;;
9898;SDS011;4988;49.238;6.698;2024-03-07T12:04:46;35.37;;;16.90;;
9898;SDS011;4988;49.238;6.698;2024-03-07T12:07:12;34.37;;;15.80;;
9898;SDS011;4988;49.238;6.698;2024-03-07T12:09:40;34.97;;;15.97;;
9898;SDS011;4988;49.238;6.698;2024-03-07T12:12:10;32.10;;;16.33;;
9898;SDS011;4988;49.238;6.698;2024-03-07T12:14:37;36.43;;;16.40;;
9898;SDS011;4988;49.238;6.698;2024-03-07T12:17:03;27.80;;;15.77;;
9898;SDS011;4988;49.238;6.698;2024-03-07T12:19:34;32.30;;;16.13;;
9898;SDS011;4988;49.238;6.698;2024-03-07T12:22:03;32.30;;;14.87;;
9898;SDS011;4988;49.238;6.698;2024-03-07T12:24:29;28.30;;;15.30;;
9898;SDS011;4988;49.238;6.698;2024-03-07T12:27:15;33.53;;;16.50;;
9898;SDS011;4988;49.238;6.698;2024-03-07T12:29:41;29.20;;;15.30;;
9898;SDS011;4988;49.238;6.698;2024-03-07T12:32:08;28.17;;;14.73;;
9898;SDS011;4988;49.238;6.698;2024-03-07T12:34:39;25.97;;;14.27;;
9898;SDS011;4988;49.238;6.698;2024-03-07T12:37:09;29.07;;;15.47;;
9898;SDS011;4988;49.238;6.698;2024-03-07T12:39:34;30.33;;;15.13;;
9898;SDS011;4988;49.238;6.698;2024-03-07T12:42:17;28.23;;;14.53;;
9898;SDS011;4988;49.238;6.698;2024-03-07T12:44:45;28.90;;;15.70;;
9898;SDS011;4988;49.238;6.698;2024-03-07T12:47:17;26.87;;;14.77;;
9898;SDS011;4988;49.238;6.698;2024-03-07T12:49:42;27.60;;;14.87;;
9898;SDS011;4988;49.238;6.698;2024-03-07T12:52:08;28.67;;;15.53;;
9898;SDS011;4988;49.238;6.698;2024-03-07T12:54:35;26.37;;;14.23;;
9898;SDS011;4988;49.238;6.698;2024-03-07T12:57:08;28.47;;;13.87;;
9898;SDS011;4988;49.238;6.698;2024-03-07T12:59:40;30.03;;;15.00;;
9898;SDS011;4988;49.238;6.698;2024-03-07T13:02:06;30.67;;;14.53;;
9898;SDS011;4988;49.238;6.698;2024-03-07T13:04:36;23.83;;;14.07;;
9898;SDS011;4988;49.238;6.698;2024-03-07T13:07:02;26.20;;;14.10;;
9898;SDS011;4988;49.238;6.698;2024-03-07T13:09:32;28.27;;;14.53;;
9898;SDS011;4988;49.238;6.698;2024-03-07T13:11:58;27.87;;;15.07;;
9898;SDS011;4988;49.238;6.698;2024-03-07T13:14:32;28.17;;;14.53;;
9898;SDS011;4988;49.238;6.698;2024-03-07T13:16:58;29.57;;;14.43;;
9898;SDS011;4988;49.238;6.698;2024-03-07T13:19:25;25.37;;;13.67;;
9898;SDS011;4988;49.238;6.698;2024-03-07T13:21:51;29.27;;;14.70;;
9898;SDS011;4988;49.238;6.698;2024-03-07T13:24:18;27.30;;;13.87;;
9898;SDS011;4988;49.238;6.698;2024-03-07T13:26:44;22.07;;;13.13;;
9898;SDS011;4988;49.238;6.698;2024-03-07T13:29:09;24.03;;;12.83;;
9898;SDS011;4988;49.238;6.698;2024-03-07T13:31:35;24.77;;;13.57;;
9898;SDS011;4988;49.238;6.698;2024-03-07T13:34:00;27.43;;;14.73;;
9898;SDS011;4988;49.238;6.698;2024-03-07T13:36:27;25.33;;;13.97;;
9898;SDS011;4988;49.238;6.698;2024-03-07T13:38:53;25.07;;;14.17;;
9898;SDS011;4988;49.238;6.698;2024-03-07T13:41:19;25.50;;;13.80;;
9898;SDS011;4988;49.238;6.698;2024-03-07T13:43:45;26.50;;;14.30;;
9898;SDS011;4988;49.238;6.698;2024-03-07T13:46:10;27.50;;;14.03;;
9898;SDS011;4988;49.238;6.698;2024-03-07T13:48:37;29.97;;;14.97;;
9898;SDS011;4988;49.238;6.698;2024-03-07T13:51:03;31.07;;;14.87;;
9898;SDS011;4988;49.238;6.698;2024-03-07T13:53:33;26.03;;;14.20;;
9898;SDS011;4988;49.238;6.698;2024-03-07T14:01:44;25.17;;;14.20;;
9898;SDS011;4988;49.238;6.698;2024-03-07T14:07:14;24.13;;;12.97;;
9898;SDS011;4988;49.238;6.698;2024-03-07T14:32:17;25.17;;;13.63;;
9898;SDS011;4988;49.238;6.698;2024-03-07T14:34:47;28.43;;;14.37;;
9898;SDS011;4988;49.238;6.698;2024-03-07T14:37:37;24.93;;;13.60;;
9898;SDS011;4988;49.238;6.698;2024-03-07T14:40:12;28.97;;;14.10;;
9898;SDS011;4988;49.238;6.698;2024-03-07T14:42:45;27.33;;;13.50;;
9898;SDS011;4988;49.238;6.698;2024-03-07T14:45:19;29.07;;;14.20;;
9898;SDS011;4988;49.238;6.698;2024-03-07T14:47:47;26.97;;;14.23;;
9898;SDS011;4988;49.238;6.698;2024-03-07T14:50:15;25.93;;;14.67;;
9898;SDS011;4988;49.238;6.698;2024-03-07T14:52:41;27.83;;;14.93;;
9898;SDS011;4988;49.238;6.698;2024-03-07T14:55:09;30.73;;;15.50;;
9898;SDS011;4988;49.238;6.698;2024-03-07T14:57:44;28.30;;;14.13;;
9898;SDS011;4988;49.238;6.698;2024-03-07T15:00:10;27.87;;;14.17;;
9898;SDS011;4988;49.238;6.698;2024-03-07T15:02:47;26.27;;;13.23;;
9898;SDS011;4988;49.238;6.698;2024-03-07T15:05:14;21.93;;;12.60;;
9898;SDS011;4988;49.238;6.698;2024-03-07T15:07:44;25.80;;;13.17;;
9898;SDS011;4988;49.238;6.698;2024-03-07T15:10:14;23.40;;;13.23;;
9898;SDS011;4988;49.238;6.698;2024-03-07T15:12:47;24.57;;;12.70;;
9898;SDS011;4988;49.238;6.698;2024-03-07T15:15:16;27.03;;;13.40;;
9898;SDS011;4988;49.238;6.698;2024-03-07T15:17:44;25.77;;;13.00;;
9898;SDS011;4988;49.238;6.698;2024-03-07T15:20:11;30.87;;;15.27;;
9898;SDS011;4988;49.238;6.698;2024-03-07T15:23:01;25.27;;;12.90;;
9898;SDS011;4988;49.238;6.698;2024-03-07T15:25:28;29.77;;;13.77;;
9898;SDS011;4988;49.238;6.698;2024-03-07T15:27:55;22.40;;;12.47;;
9898;SDS011;4988;49.238;6.698;2024-03-07T15:30:22;25.73;;;12.87;;